Time;durP1;ratioP1;P1;durP2;ratioP2;P2;SDS_P1;SDS_P2;PMS_P1;PMS_P2;Temp;Humidity;BMP_temperature;BMP_pressure;BME280_temperature;BME280_humidity;BME280_pressure;Samples;Min_cycle;Max_cycle;Signal;HPM_P1;HPM_P2
2021/05/26 00:00:56;;;;;;;0.88;0.70;;;11.40;99.90;;;;;;5090441;28;20036;-72
2021/05/26 00:03:22;;;;;;;2.28;0.70;;;11.40;99.90;;;;;;5090947;28;20028;-73
2021/05/26 00:05:48;;;;;;;0.80;0.80;;;11.40;99.90;;;;;;5090631;28;20041;-72
2021/05/26 00:08:24;;;;;;;2.47;0.90;;;11.40;99.90;;;;;;5090189;28;20032;-73
2021/05/26 00:10:50;;;;;;;0.70;0.70;;;11.30;99.90;;;;;;5090060;28;20451;-73
2021/05/26 00:13:15;;;;;;;0.60;0.50;;;11.30;99.90;;;;;;5090368;28;20107;-72
2021/05/26 00:15:41;;;;;;;1.00;0.63;;;11.20;99.90;;;;;;5090665;28;20031;-73
2021/05/26 00:18:06;;;;;;;1.08;0.80;;;11.20;99.90;;;;;;5090118;28;20051;-73
2021/05/26 00:20:32;;;;;;;1.88;0.70;;;11.10;99.90;;;;;;5090541;28;20023;-72
2021/05/26 00:22:57;;;;;;;0.60;0.60;;;11.10;99.90;;;;;;5090701;28;20429;-72
2021/05/26 00:25:25;;;;;;;0.47;0.43;;;11.00;99.90;;;;;;5090630;28;20039;-72
2021/05/26 00:27:57;;;;;;;1.35;0.80;;;11.00;99.90;;;;;;5076873;28;20036;-73
2021/05/26 00:30:23;;;;;;;1.17;0.73;;;10.90;99.90;;;;;;5090288;28;20039;-73
2021/05/26 00:32:49;;;;;;;1.17;0.57;;;10.90;99.90;;;;;;5090088;28;20411;-72
2021/05/26 00:35:14;;;;;;;0.63;0.60;;;10.90;99.90;;;;;;5089983;28;20107;-72
2021/05/26 00:37:40;;;;;;;0.82;0.45;;;10.90;99.90;;;;;;5090039;28;20036;-73
2021/05/26 00:40:06;;;;;;;1.17;0.60;;;11.00;99.90;;;;;;5089779;28;20028;-72
2021/05/26 00:42:31;;;;;;;3.58;0.95;;;11.10;99.90;;;;;;5089755;28;20028;-73
2021/05/26 00:44:57;;;;;;;0.80;0.80;;;11.10;99.90;;;;;;5089948;28;20076;-73
2021/05/26 00:47:43;;;;;;;0.70;0.70;;;11.10;99.90;;;;;;5089688;28;20045;-73
2021/05/26 00:50:11;;;;;;;0.80;0.80;;;11.10;99.90;;;;;;5086429;28;20089;-73
2021/05/26 00:52:37;;;;;;;0.93;0.75;;;11.10;99.90;;;;;;5089659;28;20063;-72
2021/05/26 00:55:06;;;;;;;0.68;0.60;;;11.00;99.90;;;;;;5089312;28;20128;-72
2021/05/26 00:57:32;;;;;;;0.70;0.70;;;11.10;99.90;;;;;;5076909;28;20029;-73
2021/05/26 00:59:58;;;;;;;0.77;0.70;;;11.10;99.90;;;;;;5088371;28;20039;-72
2021/05/26 01:02:24;;;;;;;0.50;0.50;;;11.10;99.90;;;;;;5088541;28;20031;-73
2021/05/26 01:04:49;;;;;;;1.67;0.50;;;11.10;99.90;;;;;;5089210;28;20034;-73
2021/05/26 01:07:15;;;;;;;0.40;0.40;;;11.10;99.90;;;;;;5089532;28;20027;-74
2021/05/26 01:09:40;;;;;;;0.50;0.50;;;11.10;99.90;;;;;;5089263;28;20500;-73
2021/05/26 01:12:07;;;;;;;0.60;0.50;;;11.10;99.90;;;;;;5089855;28;20028;-73
2021/05/26 01:14:32;;;;;;;0.90;0.63;;;11.10;99.90;;;;;;5089074;28;20024;-73
2021/05/26 01:16:58;;;;;;;3.10;1.48;;;11.10;99.90;;;;;;5089733;28;20023;-73
2021/05/26 01:19:23;;;;;;;0.77;0.50;;;11.10;99.90;;;;;;5089417;28;20024;-73
2021/05/26 01:21:53;;;;;;;0.85;0.73;;;11.10;99.90;;;;;;5088553;28;20436;-73
2021/05/26 01:24:19;;;;;;;2.55;0.50;;;11.10;99.90;;;;;;5089025;28;20027;-73
2021/05/26 01:26:46;;;;;;;0.52;0.52;;;11.10;99.90;;;;;;5088499;28;20107;-73
2021/05/26 01:29:13;;;;;;;0.68;0.60;;;11.10;99.90;;;;;;5089270;28;20525;-73
2021/05/26 01:31:38;;;;;;;0.65;0.57;;;11.10;99.90;;;;;;5089022;28;20032;-73
2021/05/26 01:34:04;;;;;;;0.73;0.50;;;11.10;99.90;;;;;;5088485;28;20028;-73
2021/05/26 01:36:32;;;;;;;1.48;0.50;;;11.10;99.90;;;;;;5089387;28;20073;-73
2021/05/26 01:38:58;;;;;;;1.13;0.63;;;11.10;99.90;;;;;;5089407;28;20016;-73
2021/05/26 01:41:23;;;;;;;1.00;0.60;;;11.10;99.90;;;;;;5088879;28;20031;-72
2021/05/26 01:43:49;;;;;;;0.60;0.60;;;11.20;99.90;;;;;;5087356;28;20028;-73
2021/05/26 01:46:16;;;;;;;0.70;0.52;;;11.10;99.90;;;;;;5088313;28;20111;-73
2021/05/26 01:48:46;;;;;;;0.60;0.60;;;11.10;99.90;;;;;;5081467;28;20107;-73
2021/05/26 01:51:11;;;;;;;1.02;0.60;;;11.10;99.90;;;;;;5085267;28;20518;-73
2021/05/26 01:53:37;;;;;;;1.73;0.88;;;11.10;99.90;;;;;;5087863;28;20330;-73
2021/05/26 01:56:02;;;;;;;3.35;0.70;;;11.10;99.90;;;;;;5086725;28;20123;-73
2021/05/26 01:58:28;;;;;;;1.05;0.57;;;11.10;99.90;;;;;;5088037;28;20028;-73
2021/05/26 02:00:53;;;;;;;0.82;0.60;;;11.10;99.90;;;;;;5088762;28;20024;-73
2021/05/26 02:03:19;;;;;;;0.40;0.40;;;11.20;99.90;;;;;;5088063;28;20476;-73
2021/05/26 02:05:44;;;;;;;0.90;0.60;;;11.20;99.90;;;;;;5087612;28;20027;-73
2021/05/26 02:08:10;;;;;;;0.60;0.60;;;11.20;99.90;;;;;;5088339;28;20475;-73
2021/05/26 02:13:20;;;;;;;1.33;1.10;;;11.10;99.90;;;;;;5083420;28;20183;-72
2021/05/26 02:15:45;;;;;;;0.70;0.60;;;11.10;99.90;;;;;;5088123;28;20293;-72
2021/05/26 02:18:11;;;;;;;0.60;0.60;;;11.10;99.90;;;;;;5088293;28;20028;-72
2021/05/26 02:20:36;;;;;;;0.50;0.50;;;11.10;99.90;;;;;;5089150;28;20555;-73
2021/05/26 02:23:01;;;;;;;0.70;0.70;;;11.00;99.90;;;;;;5088001;28;20123;-73
2021/05/26 02:25:27;;;;;;;0.80;0.80;;;11.10;99.90;;;;;;5087580;28;20032;-72
2021/05/26 02:27:52;;;;;;;0.65;0.55;;;11.00;99.90;;;;;;5088155;28;20485;-73
2021/05/26 02:30:19;;;;;;;1.38;0.60;;;11.10;99.90;;;;;;5087687;28;20059;-72
2021/05/26 02:32:44;;;;;;;1.70;0.88;;;11.10;99.90;;;;;;5087001;28;20043;-72
2021/05/26 02:35:10;;;;;;;0.63;0.63;;;11.10;99.90;;;;;;5087253;28;20016;-72
2021/05/26 02:37:36;;;;;;;2.60;0.80;;;11.10;99.90;;;;;;5087609;28;20024;-73
2021/05/26 02:40:02;;;;;;;0.73;0.70;;;11.10;99.90;;;;;;5087348;28;20028;-72
2021/05/26 02:42:27;;;;;;;0.70;0.60;;;11.10;99.90;;;;;;5087931;28;20059;-72
2021/05/26 02:44:52;;;;;;;1.05;0.55;;;11.10;99.90;;;;;;5086830;28;20028;-73
2021/05/26 02:47:18;;;;;;;1.98;0.82;;;11.00;99.90;;;;;;5087432;28;20467;-72
2021/05/26 02:49:44;;;;;;;0.80;0.60;;;11.10;99.90;;;;;;5079271;28;20024;-72
2021/05/26 02:52:09;;;;;;;1.65;0.93;;;11.10;99.90;;;;;;5087575;28;20535;-73
2021/05/26 02:54:34;;;;;;;0.63;0.63;;;11.10;99.90;;;;;;5087321;28;20023;-73
2021/05/26 02:57:00;;;;;;;2.63;0.82;;;11.10;99.90;;;;;;5086850;28;20123;-73
2021/05/26 02:59:25;;;;;;;0.80;0.80;;;11.00;99.90;;;;;;5087922;28;20074;-72
2021/05/26 03:01:51;;;;;;;2.15;0.70;;;11.10;99.90;;;;;;5091267;28;20099;-72
2021/05/26 03:04:16;;;;;;;2.78;1.00;;;11.10;99.90;;;;;;5090949;28;20036;-72
2021/05/26 03:06:42;;;;;;;0.75;0.70;;;11.00;99.90;;;;;;5091449;28;20039;-72
2021/05/26 03:09:07;;;;;;;0.88;0.88;;;11.10;99.90;;;;;;5091733;28;20147;-72
2021/05/26 03:11:33;;;;;;;0.70;0.70;;;11.10;99.90;;;;;;5091531;28;20101;-72
2021/05/26 03:13:58;;;;;;;1.15;0.93;;;11.10;99.90;;;;;;5091461;28;20028;-72
2021/05/26 03:16:24;;;;;;;0.73;0.70;;;11.00;99.90;;;;;;5091165;28;20035;-72
2021/05/26 03:18:49;;;;;;;1.75;0.73;;;11.10;99.90;;;;;;5091385;28;20048;-73
2021/05/26 03:21:15;;;;;;;2.03;0.88;;;11.10;99.90;;;;;;5091132;28;20545;-73
2021/05/26 03:23:42;;;;;;;0.70;0.70;;;11.10;99.90;;;;;;5090922;28;20034;-72
2021/05/26 03:26:09;;;;;;;0.80;0.80;;;11.10;99.90;;;;;;5091520;28;20028;-72
2021/05/26 03:28:34;;;;;;;3.55;1.00;;;11.20;99.90;;;;;;5092288;28;20028;-73
2021/05/26 03:31:00;;;;;;;1.38;0.90;;;11.20;99.90;;;;;;5090810;28;20036;-73
2021/05/26 03:33:26;;;;;;;1.10;1.00;;;11.20;99.90;;;;;;5091116;28;20463;-72
2021/05/26 03:35:51;;;;;;;2.28;0.95;;;11.20;99.90;;;;;;5090215;28;20031;-73
2021/05/26 03:38:17;;;;;;;7.55;0.77;;;11.20;99.90;;;;;;5091424;28;20150;-73
2021/05/26 03:40:42;;;;;;;0.60;0.60;;;11.20;99.90;;;;;;5091298;28;20031;-72
2021/05/26 03:43:08;;;;;;;0.93;0.70;;;11.20;99.90;;;;;;5091334;28;20538;-72
2021/05/26 03:45:34;;;;;;;2.42;1.00;;;11.20;99.90;;;;;;5091184;28;20305;-73
2021/05/26 03:48:00;;;;;;;3.03;0.73;;;11.20;99.90;;;;;;5090165;28;20609;-72
2021/05/26 03:50:27;;;;;;;0.63;0.60;;;11.20;99.90;;;;;;5091011;28;20030;-73
2021/05/26 03:52:53;;;;;;;1.83;0.88;;;11.20;99.90;;;;;;5090780;28;20048;-72
2021/05/26 03:55:20;;;;;;;0.80;0.80;;;11.30;99.90;;;;;;5090840;28;20032;-72
2021/05/26 03:57:47;;;;;;;1.35;0.90;;;11.30;99.90;;;;;;5087154;28;20024;-73
2021/05/26 04:00:15;;;;;;;3.67;1.02;;;11.30;99.90;;;;;;5090836;28;20039;-72
2021/05/26 04:02:40;;;;;;;2.45;1.02;;;11.30;99.90;;;;;;5090223;28;20031;-72
2021/05/26 04:05:06;;;;;;;0.90;0.85;;;11.30;99.90;;;;;;5090630;28;20035;-73
2021/05/26 04:07:33;;;;;;;0.68;0.68;;;11.40;99.90;;;;;;5091029;28;20032;-73
2021/05/26 04:09:58;;;;;;;2.38;0.95;;;11.40;99.90;;;;;;5089877;28;20028;-72
2021/05/26 04:12:28;;;;;;;1.20;0.98;;;11.40;99.90;;;;;;5090511;28;20024;-73
2021/05/26 04:14:56;;;;;;;0.90;0.80;;;11.50;99.90;;;;;;5089831;28;20032;-73
2021/05/26 04:17:22;;;;;;;1.25;0.80;;;11.50;99.90;;;;;;5088198;28;20031;-73
2021/05/26 04:19:48;;;;;;;0.93;0.85;;;11.60;99.90;;;;;;5090200;28;20028;-72
2021/05/26 04:22:14;;;;;;;4.57;0.82;;;11.60;99.90;;;;;;5089112;28;20429;-72
2021/05/26 04:24:39;;;;;;;1.83;0.90;;;11.60;99.90;;;;;;5090160;28;20027;-72
2021/05/26 04:27:05;;;;;;;3.80;0.80;;;11.70;99.90;;;;;;5090250;28;20020;-73
2021/05/26 04:29:31;;;;;;;1.90;1.00;;;11.70;99.90;;;;;;5088986;28;20044;-72
2021/05/26 04:31:57;;;;;;;1.10;1.00;;;11.70;99.90;;;;;;5088897;28;20032;-73
2021/05/26 04:34:24;;;;;;;1.15;1.02;;;11.70;99.90;;;;;;5089446;28;20476;-73
2021/05/26 04:36:49;;;;;;;2.17;0.90;;;11.60;99.90;;;;;;5090453;28;20043;-76
2021/05/26 04:39:15;;;;;;;0.70;0.70;;;11.70;99.90;;;;;;5090118;28;20459;-75
2021/05/26 04:41:41;;;;;;;1.33;0.80;;;11.60;99.90;;;;;;5088921;28;20060;-74
2021/05/26 04:44:06;;;;;;;0.88;0.77;;;11.70;99.90;;;;;;5090027;28;20032;-75
2021/05/26 04:46:32;;;;;;;1.55;1.10;;;11.70;99.90;;;;;;5089178;28;20016;-76
2021/05/26 04:48:58;;;;;;;5.78;1.17;;;11.70;99.90;;;;;;5089840;28;20036;-77
2021/05/26 04:51:24;;;;;;;2.65;1.17;;;11.70;99.90;;;;;;5085124;28;20028;-78
2021/05/26 04:53:49;;;;;;;1.42;1.00;;;11.70;99.90;;;;;;5089336;28;20054;-75
2021/05/26 04:56:15;;;;;;;4.05;1.15;;;11.70;99.90;;;;;;5085904;28;20158;-75
2021/05/26 04:58:42;;;;;;;2.28;1.08;;;11.70;99.90;;;;;;5089897;28;20372;-74
2021/05/26 05:01:07;;;;;;;3.22;1.40;;;11.60;99.90;;;;;;5089232;28;20535;-74
2021/05/26 05:03:34;;;;;;;2.17;1.27;;;11.70;99.90;;;;;;5088684;28;20127;-76
2021/05/26 05:05:59;;;;;;;1.40;1.17;;;11.60;99.90;;;;;;5088576;28;20522;-85
2021/05/26 05:08:45;;;;;;;2.22;1.30;;;11.70;99.90;;;;;;5088975;28;20028;-79
2021/05/26 05:11:10;;;;;;;7.78;2.88;;;11.70;99.90;;;;;;5086827;28;20047;-82
2021/05/26 05:13:36;;;;;;;2.22;1.30;;;11.80;99.90;;;;;;5090107;28;20020;-82
2021/05/26 05:16:02;;;;;;;3.67;1.05;;;11.80;99.90;;;;;;5089515;28;20081;-79
2021/05/26 05:18:27;;;;;;;1.50;0.90;;;11.80;99.90;;;;;;5088533;28;20027;-78
2021/05/26 05:20:53;;;;;;;2.28;1.20;;;11.90;99.90;;;;;;5086490;28;20453;-74
2021/05/26 05:23:18;;;;;;;2.60;0.93;;;12.00;99.90;;;;;;5087323;28;20127;-73
2021/05/26 05:25:44;;;;;;;3.50;1.00;;;12.10;99.90;;;;;;5085578;28;20020;-74
2021/05/26 05:28:09;;;;;;;3.33;1.13;;;12.20;99.90;;;;;;5087364;28;20551;-73
2021/05/26 05:30:35;;;;;;;2.60;1.23;;;12.30;99.90;;;;;;5088457;28;20024;-73
2021/05/26 05:33:00;;;;;;;1.70;0.90;;;12.40;99.90;;;;;;5088727;28;20152;-73
2021/05/26 05:35:26;;;;;;;6.18;1.15;;;12.50;99.90;;;;;;5088830;28;20423;-73
2021/05/26 05:37:51;;;;;;;2.30;1.00;;;12.50;99.90;;;;;;5087339;28;20084;-72
2021/05/26 05:40:17;;;;;;;3.90;0.90;;;12.60;99.70;;;;;;5089161;28;20024;-73
2021/05/26 05:42:43;;;;;;;3.22;1.33;;;12.60;99.70;;;;;;5088132;28;20031;-73
2021/05/26 05:45:09;;;;;;;1.00;0.90;;;12.60;98.70;;;;;;5088435;28;20028;-72
2021/05/26 05:47:35;;;;;;;2.15;1.33;;;12.60;99.10;;;;;;5087709;28;20028;-73
2021/05/26 05:50:01;;;;;;;1.58;1.05;;;12.60;98.70;;;;;;5076971;28;20032;-73
2021/05/26 05:52:27;;;;;;;4.25;1.85;;;12.60;98.10;;;;;;5089240;28;20051;-74
2021/05/26 05:54:52;;;;;;;1.08;0.98;;;12.60;98.50;;;;;;5088111;28;20031;-76
2021/05/26 05:57:17;;;;;;;2.33;1.20;;;12.60;97.50;;;;;;5088631;28;20586;-81
2021/05/26 05:59:43;;;;;;;1.73;1.30;;;12.50;97.80;;;;;;5087817;28;20032;-77
2021/05/26 06:02:08;;;;;;;3.42;1.40;;;12.50;97.00;;;;;;5084100;28;20031;-77
2021/05/26 06:04:34;;;;;;;3.40;1.10;;;12.60;97.40;;;;;;5088880;28;20046;-79
2021/05/26 06:06:59;;;;;;;2.72;1.10;;;12.60;97.20;;;;;;5088502;28;20032;-78
2021/05/26 06:09:25;;;;;;;1.65;1.35;;;12.60;97.20;;;;;;5087860;28;20024;-76
2021/05/26 06:11:51;;;;;;;1.90;1.45;;;12.60;97.20;;;;;;5087100;28;20478;-77
2021/05/26 06:14:19;;;;;;;1.77;1.40;;;12.60;97.00;;;;;;5081530;28;20028;-75
2021/05/26 06:16:46;;;;;;;1.45;0.98;;;12.70;96.90;;;;;;5088068;28;20092;-76
2021/05/26 06:19:12;;;;;;;2.38;1.30;;;12.80;97.20;;;;;;5086669;28;20035;-77
2021/05/26 06:21:38;;;;;;;1.10;1.00;;;12.80;96.40;;;;;;5086917;28;20020;-77
2021/05/26 06:24:04;;;;;;;1.45;1.13;;;12.80;96.30;;;;;;5088484;28;20496;-79
2021/05/26 06:26:33;;;;;;;4.35;1.30;;;12.80;96.40;;;;;;5088024;28;20020;-74
2021/05/26 06:29:01;;;;;;;3.17;1.10;;;12.80;95.80;;;;;;5087130;28;20059;-75
2021/05/26 06:31:26;;;;;;;2.80;1.30;;;12.70;96.60;;;;;;5087616;28;20071;-75
2021/05/26 06:33:52;;;;;;;1.58;1.10;;;12.80;96.50;;;;;;5086463;28;20048;-74
2021/05/26 06:36:17;;;;;;;5.05;2.10;;;12.80;96.10;;;;;;5088066;28;20470;-75
2021/05/26 06:38:43;;;;;;;2.70;1.23;;;12.70;95.80;;;;;;5088642;28;20016;-75
2021/05/26 06:41:10;;;;;;;1.60;1.23;;;12.70;96.30;;;;;;5087775;28;20638;-75
2021/05/26 06:43:35;;;;;;;1.23;1.13;;;12.70;96.00;;;;;;5088255;28;20017;-74
2021/05/26 06:46:01;;;;;;;1.25;1.10;;;12.60;96.00;;;;;;5088108;28;20024;-74
2021/05/26 06:48:26;;;;;;;1.77;1.08;;;12.70;96.60;;;;;;5080768;28;20039;-74
2021/05/26 06:50:52;;;;;;;14.38;1.70;;;12.70;96.70;;;;;;5087659;28;20085;-75
2021/05/26 06:53:17;;;;;;;1.25;1.10;;;12.80;96.80;;;;;;5087155;28;20376;-75
2021/05/26 06:55:43;;;;;;;1.45;1.33;;;12.90;95.30;;;;;;5088315;28;20012;-74
2021/05/26 06:58:09;;;;;;;4.15;1.83;;;13.00;95.20;;;;;;5082122;28;20452;-75
2021/05/26 07:00:34;;;;;;;2.50;1.20;;;13.20;94.70;;;;;;5069526;28;20111;-74
2021/05/26 07:03:01;;;;;;;3.33;1.40;;;13.30;93.50;;;;;;5083980;28;20371;-75
2021/05/26 07:05:27;;;;;;;4.65;1.33;;;13.30;93.10;;;;;;5087621;28;20028;-75
2021/05/26 07:07:53;;;;;;;3.22;1.55;;;13.40;93.20;;;;;;5087976;28;20539;-74
2021/05/26 07:10:19;;;;;;;1.20;1.02;;;13.40;92.50;;;;;;5088079;28;20378;-75
2021/05/26 07:12:50;;;;;;;2.10;1.23;;;13.50;92.50;;;;;;5087980;28;20269;-74
2021/05/26 07:15:16;;;;;;;2.35;1.33;;;13.50;92.40;;;;;;5088142;28;20032;-74
2021/05/26 07:17:42;;;;;;;2.08;1.13;;;13.60;91.90;;;;;;5087700;28;20034;-77
2021/05/26 07:20:08;;;;;;;1.35;1.10;;;13.70;91.00;;;;;;5087746;28;20028;-77
2021/05/26 07:22:34;;;;;;;2.72;1.73;;;13.70;90.60;;;;;;5080808;28;20024;-77
2021/05/26 07:24:59;;;;;;;7.28;1.67;;;13.60;91.00;;;;;;5086120;28;20035;-77
2021/05/26 07:27:25;;;;;;;1.73;1.30;;;13.90;91.40;;;;;;5088046;28;20034;-77
2021/05/26 07:29:50;;;;;;;3.03;1.40;;;14.10;89.80;;;;;;5087889;28;20028;-77
2021/05/26 07:32:16;;;;;;;2.80;1.50;;;14.20;88.60;;;;;;5087708;28;20382;-77
2021/05/26 07:34:41;;;;;;;3.00;1.50;;;14.20;88.00;;;;;;5087724;28;20497;-76
2021/05/26 07:37:07;;;;;;;5.45;1.85;;;14.20;87.20;;;;;;5087596;28;20387;-76
2021/05/26 07:39:35;;;;;;;8.45;1.50;;;14.30;87.40;;;;;;5076610;28;20032;-76
2021/05/26 07:42:02;;;;;;;4.13;1.50;;;14.20;87.30;;;;;;5085303;28;20036;-76
2021/05/26 07:44:27;;;;;;;2.47;1.60;;;14.10;87.20;;;;;;5087890;28;20538;-76
2021/05/26 07:46:54;;;;;;;1.42;1.20;;;14.00;86.10;;;;;;5089035;28;20132;-76
2021/05/26 07:49:21;;;;;;;1.65;1.02;;;14.00;86.90;;;;;;5080638;28;20107;-75
2021/05/26 07:51:50;;;;;;;1.30;1.20;;;14.30;85.20;;;;;;5084544;28;20498;-76
2021/05/26 07:54:15;;;;;;;1.30;1.08;;;14.50;84.60;;;;;;5091193;28;20024;-76
2021/05/26 07:56:41;;;;;;;3.38;1.38;;;14.60;83.60;;;;;;5086050;28;20673;-76
2021/05/26 07:59:07;;;;;;;3.38;1.60;;;14.50;80.20;;;;;;5090965;28;20016;-76
2021/05/26 08:01:32;;;;;;;2.40;1.20;;;14.40;80.80;;;;;;5091229;28;20023;-76
2021/05/26 08:03:58;;;;;;;8.85;1.40;;;14.20;81.60;;;;;;5090868;28;20027;-77
2021/05/26 08:06:23;;;;;;;1.85;1.20;;;14.20;81.80;;;;;;5091141;28;20057;-77
2021/05/26 08:08:49;;;;;;;4.03;1.35;;;14.20;82.80;;;;;;5091198;28;20024;-76
2021/05/26 08:11:14;;;;;;;2.20;1.15;;;14.10;82.90;;;;;;5090646;28;20036;-76
2021/05/26 08:13:39;;;;;;;2.78;1.40;;;13.90;83.70;;;;;;5088874;28;20035;-76
2021/05/26 08:16:06;;;;;;;5.50;1.42;;;13.80;83.90;;;;;;5090293;28;20028;-76
2021/05/26 08:18:32;;;;;;;3.00;1.40;;;13.70;84.50;;;;;;5090791;28;20028;-76
2021/05/26 08:20:57;;;;;;;1.42;1.20;;;13.60;85.90;;;;;;5090808;28;20481;-76
2021/05/26 08:23:25;;;;;;;1.17;1.05;;;13.50;86.70;;;;;;5090897;28;20034;-76
2021/05/26 08:25:51;;;;;;;1.80;1.15;;;13.60;87.00;;;;;;5090841;28;20466;-76
2021/05/26 08:28:17;;;;;;;1.20;0.98;;;13.80;87.50;;;;;;5090671;28;20081;-76
2021/05/26 08:30:44;;;;;;;2.45;1.30;;;14.10;85.30;;;;;;5081976;28;20458;-76
2021/05/26 08:33:13;;;;;;;4.05;1.10;;;14.20;83.90;;;;;;5090159;28;20039;-76
2021/05/26 08:35:39;;;;;;;1.42;1.10;;;14.20;84.40;;;;;;5089030;28;20410;-76
2021/05/26 08:38:05;;;;;;;1.15;1.08;;;14.20;84.60;;;;;;5090343;28;20027;-77
2021/05/26 08:40:30;;;;;;;3.53;1.35;;;14.30;84.20;;;;;;5090366;28;20024;-76
2021/05/26 08:42:57;;;;;;;1.90;1.20;;;14.30;84.60;;;;;;5090318;28;20035;-77
2021/05/26 08:45:23;;;;;;;2.33;1.15;;;14.40;82.70;;;;;;5089611;28;20426;-76
2021/05/26 08:47:52;;;;;;;2.30;1.30;;;14.50;81.60;;;;;;5088516;28;20020;-76
2021/05/26 08:50:18;;;;;;;4.30;1.20;;;14.60;81.50;;;;;;5088782;28;20041;-76
2021/05/26 08:52:44;;;;;;;1.48;1.27;;;14.90;82.50;;;;;;5090091;28;20141;-76
2021/05/26 08:55:14;;;;;;;3.40;1.33;;;15.20;78.80;;;;;;5089899;28;20020;-76
2021/05/26 08:57:40;;;;;;;1.63;1.08;;;15.40;80.30;;;;;;5084654;28;20475;-76
2021/05/26 09:00:07;;;;;;;1.58;1.10;;;15.50;76.80;;;;;;5089716;28;20161;-76
2021/05/26 09:02:33;;;;;;;1.95;1.17;;;15.50;76.50;;;;;;5088294;28;20032;-77
2021/05/26 09:04:58;;;;;;;2.15;1.10;;;15.30;75.00;;;;;;5080648;28;20050;-77
2021/05/26 09:07:29;;;;;;;1.42;0.93;;;15.10;76.50;;;;;;5090283;28;20032;-76
2021/05/26 09:09:55;;;;;;;5.22;1.20;;;14.90;77.10;;;;;;5089738;28;20081;-76
2021/05/26 09:12:38;;;;;;;5.05;1.35;;;14.80;77.90;;;;;;5089477;28;20505;-76
2021/05/26 09:15:17;;;;;;;2.30;1.27;;;14.70;77.60;;;;;;5089892;28;20024;-76
2021/05/26 09:17:48;;;;;;;0.88;0.88;;;14.50;79.20;;;;;;5089836;28;20031;-76
2021/05/26 09:20:27;;;;;;;1.83;1.40;;;14.30;78.50;;;;;;5089071;28;20546;-77
2021/05/26 09:23:02;;;;;;;2.00;1.17;;;14.20;79.90;;;;;;5082589;28;20032;-76
2021/05/26 09:25:29;;;;;;;0.90;0.90;;;14.30;79.90;;;;;;5088734;28;20409;-76
2021/05/26 09:28:44;;;;;;;2.28;1.08;;;14.30;79.20;;;;;;5089562;28;20035;-76
2021/05/26 09:31:12;;;;;;;2.72;1.05;;;14.40;78.20;;;;;;5088198;28;20067;-76
2021/05/26 09:33:43;;;;;;;5.78;2.25;;;14.60;78.40;;;;;;5089355;28;20483;-77
2021/05/26 09:36:16;;;;;;;1.48;0.98;;;14.80;77.60;;;;;;5089397;28;20016;-77
2021/05/26 09:38:53;;;;;;;5.47;1.02;;;15.00;77.10;;;;;;5080085;28;20032;-77
2021/05/26 09:41:30;;;;;;;4.07;1.10;;;15.20;74.80;;;;;;5088734;28;20050;-76
2021/05/26 09:44:00;;;;;;;1.42;0.98;;;15.20;73.50;;;;;;5089187;28;20103;-77
2021/05/26 09:46:33;;;;;;;5.43;1.40;;;15.40;74.10;;;;;;5089296;28;20020;-76
2021/05/26 09:49:17;;;;;;;3.08;1.00;;;15.40;74.50;;;;;;5083380;28;20032;-76
2021/05/26 09:51:56;;;;;;;3.08;1.45;;;15.40;73.40;;;;;;5089142;28;20111;-76
2021/05/26 09:54:22;;;;;;;1.90;0.80;;;15.30;74.50;;;;;;5087918;28;20055;-77
2021/05/26 09:56:53;;;;;;;2.50;1.00;;;15.30;74.00;;;;;;5087100;28;20429;-77
2021/05/26 09:59:21;;;;;;;4.85;1.30;;;15.50;72.70;;;;;;5088158;28;20028;-76
2021/05/26 10:01:47;;;;;;;1.48;1.00;;;15.80;71.80;;;;;;5089097;28;20487;-76
2021/05/26 10:04:13;;;;;;;1.98;1.30;;;16.10;69.70;;;;;;5088784;28;20562;-77
2021/05/26 10:06:40;;;;;;;1.30;0.73;;;16.30;70.60;;;;;;5088786;28;20099;-75
2021/05/26 10:09:09;;;;;;;3.10;1.02;;;16.60;67.70;;;;;;5088021;28;20051;-76
2021/05/26 10:11:35;;;;;;;4.57;1.10;;;16.60;67.30;;;;;;5085296;28;20032;-76
2021/05/26 10:14:16;;;;;;;2.88;1.10;;;16.20;69.60;;;;;;5082239;28;20031;-76
2021/05/26 10:16:42;;;;;;;2.28;1.25;;;16.30;71.00;;;;;;5088686;28;20031;-76
2021/05/26 10:19:09;;;;;;;1.55;1.05;;;16.50;69.80;;;;;;5087918;28;20088;-82
2021/05/26 10:21:36;;;;;;;1.00;0.90;;;16.40;68.40;;;;;;5085736;28;20126;-83
2021/05/26 10:24:05;;;;;;;2.53;0.85;;;16.20;69.10;;;;;;5086916;28;20450;-83
2021/05/26 10:26:46;;;;;;;3.78;1.05;;;15.90;70.90;;;;;;5088553;28;20558;-84
2021/05/26 10:29:30;;;;;;;2.00;0.80;;;16.10;70.20;;;;;;5082698;28;20111;-84
2021/05/26 10:31:59;;;;;;;2.53;1.00;;;16.50;71.90;;;;;;5087103;28;20652;-86
2021/05/26 10:34:54;;;;;;;2.83;0.90;;;16.90;69.40;;;;;;5085959;28;20028;-86
2021/05/26 10:37:27;;;;;;;1.83;1.15;;;16.80;67.20;;;;;;5084492;28;20020;-82
2021/05/26 10:39:53;;;;;;;1.45;1.00;;;16.60;66.80;;;;;;5084197;28;20547;-84
2021/05/26 10:42:27;;;;;;;1.48;1.10;;;16.30;67.60;;;;;;5087587;28;20031;-84
2021/05/26 10:45:02;;;;;;;1.88;0.80;;;16.10;68.30;;;;;;5087636;28;20034;-84
2021/05/26 10:47:37;;;;;;;1.70;0.77;;;16.40;67.70;;;;;;5076571;28;20486;-83
2021/05/26 10:50:15;;;;;;;4.32;1.10;;;16.70;66.50;;;;;;5080937;28;20493;-81
2021/05/26 10:53:00;;;;;;;1.20;0.70;;;17.10;64.60;;;;;;5087930;28;20237;-82
2021/05/26 10:55:58;;;;;;;1.50;0.90;;;17.20;62.60;;;;;;5086037;28;20020;-81
2021/05/26 10:58:25;;;;;;;1.15;0.80;;;17.30;63.10;;;;;;5086793;28;20028;-85
2021/05/26 11:00:57;;;;;;;2.25;0.70;;;17.20;65.10;;;;;;5088261;28;20031;-84
2021/05/26 11:03:25;;;;;;;;;;;16.80;64.70;;;;;;5087197;28;20031;-84
2021/05/26 11:06:04;;;;;;;2.13;0.90;;;16.60;66.80;;;;;;5087741;28;19912;-84
2021/05/26 11:08:31;;;;;;;6.47;1.20;;;16.70;66.60;;;;;;5086724;28;20028;-84
2021/05/26 11:10:57;;;;;;;1.75;1.13;;;17.00;68.00;;;;;;5088111;28;20028;-84
2021/05/26 11:13:23;;;;;;;4.97;0.80;;;17.30;67.50;;;;;;5087903;28;20474;-82
2021/05/26 11:15:56;;;;;;;1.58;1.10;;;17.50;65.00;;;;;;5087610;28;20039;-85
2021/05/26 11:20:50;;;;;;;4.07;1.23;;;17.80;65.00;;;;;;5077247;28;20079;-83
2021/05/26 11:23:16;;;;;;;2.25;1.13;;;17.50;66.00;;;;;;5092133;28;20024;-83
2021/05/26 11:26:08;;;;;;;4.13;1.20;;;17.40;67.10;;;;;;5089326;28;20032;-84
2021/05/26 11:28:35;;;;;;;2.63;1.45;;;17.30;68.30;;;;;;5082410;28;20035;-84
2021/05/26 11:31:02;;;;;;;3.03;1.13;;;17.30;67.10;;;;;;5078269;28;20028;-83
2021/05/26 11:33:28;;;;;;;1.42;1.00;;;17.10;67.50;;;;;;5089306;28;20107;-83
2021/05/26 11:35:58;;;;;;;1.15;0.90;;;17.00;67.80;;;;;;5090609;28;20111;-83
2021/05/26 11:38:25;;;;;;;3.22;1.00;;;16.90;67.10;;;;;;5087419;28;20032;-84
2021/05/26 11:40:51;;;;;;;4.13;1.73;;;16.70;66.80;;;;;;5090729;28;20067;-84
2021/05/26 11:43:21;;;;;;;0.88;0.80;;;16.60;65.90;;;;;;5091461;28;20031;-83
2021/05/26 11:45:49;;;;;;;1.80;0.80;;;16.40;66.70;;;;;;5086930;28;20390;-84
2021/05/26 11:48:20;;;;;;;1.65;0.93;;;16.30;67.90;;;;;;5089640;28;20105;-83
2021/05/26 11:50:46;;;;;;;3.03;0.95;;;16.20;69.20;;;;;;5086432;28;20034;-82
2021/05/26 11:53:14;;;;;;;0.70;0.70;;;16.00;68.80;;;;;;5090740;28;20043;-83
2021/05/26 11:55:43;;;;;;;2.38;0.90;;;15.80;68.80;;;;;;5088122;28;20024;-84
2021/05/26 11:58:08;;;;;;;4.18;1.48;;;15.90;70.00;;;;;;5086675;28;20020;-83
2021/05/26 12:00:36;;;;;;;2.60;1.25;;;15.80;74.20;;;;;;5091567;28;20089;-84
2021/05/26 12:03:12;;;;;;;2.25;1.08;;;15.60;76.20;;;;;;5078005;28;20028;-84
2021/05/26 12:05:46;;;;;;;1.67;1.20;;;15.50;77.50;;;;;;5091187;28;20024;-83
2021/05/26 12:08:23;;;;;;;1.92;1.20;;;15.40;77.80;;;;;;5089246;28;20028;-83
2021/05/26 12:10:54;;;;;;;1.63;1.10;;;15.20;79.50;;;;;;5089512;28;20082;-85
2021/05/26 12:13:31;;;;;;;3.60;1.67;;;15.20;80.00;;;;;;5090974;28;20016;-85
2021/05/26 12:15:59;;;;;;;1.33;1.13;;;15.30;80.90;;;;;;5089731;28;20508;-84
2021/05/26 12:18:25;;;;;;;2.72;1.05;;;15.30;81.90;;;;;;5090703;28;20031;-78
2021/05/26 12:20:53;;;;;;;1.45;0.98;;;15.30;81.50;;;;;;5090607;28;20139;-79
2021/05/26 12:23:33;;;;;;;3.38;1.10;;;15.30;83.50;;;;;;5090523;28;20103;-80
2021/05/26 12:26:00;;;;;;;5.15;1.10;;;15.30;82.40;;;;;;5088877;28;20031;-78
2021/05/26 12:28:29;;;;;;;3.13;1.17;;;15.20;83.40;;;;;;5080187;28;20025;-80
2021/05/26 12:30:55;;;;;;;1.60;0.98;;;15.20;85.50;;;;;;5087651;28;20124;-78
2021/05/26 12:33:24;;;;;;;2.85;0.90;;;15.20;87.10;;;;;;5085914;28;20115;-78
2021/05/26 12:36:07;;;;;;;3.35;1.17;;;15.20;87.50;;;;;;5089290;28;20016;-78
2021/05/26 12:38:35;;;;;;;1.23;1.00;;;15.30;89.10;;;;;;5087955;28;20114;-72
2021/05/26 12:41:22;;;;;;;1.42;1.10;;;15.40;85.20;;;;;;5088988;28;20028;-77
2021/05/26 12:43:49;;;;;;;4.63;1.40;;;15.60;83.10;;;;;;5089699;28;20031;-78
2021/05/26 12:46:33;;;;;;;2.47;1.33;;;15.60;84.10;;;;;;5089347;28;20081;-78
2021/05/26 12:48:58;;;;;;;3.05;1.40;;;15.60;85.40;;;;;;5086855;28;20024;-78
2021/05/26 12:51:24;;;;;;;3.33;1.25;;;15.70;83.30;;;;;;5089746;28;20034;-77
2021/05/26 12:53:56;;;;;;;1.00;0.95;;;15.90;84.40;;;;;;5089580;28;20044;-78
2021/05/26 12:56:23;;;;;;;5.78;1.33;;;16.20;84.40;;;;;;5090221;28;20134;-76